Time;durP1;ratioP1;P1;durP2;ratioP2;P2;SDS_P1;SDS_P2;PMS_P1;PMS_P2;Temp;Humidity;BMP_temperature;BMP_pressure;BME280_temperature;BME280_humidity;BME280_pressure;Samples;Min_cycle;Max_cycle;Signal;HPM_P1;HPM_P2
2022/03/24 00:05:13;;;;;;;;;;;;;;;;;;;;;
2022/03/24 00:20:32;;;;;;;;;;;;;;;;;;;;;
2022/03/24 00:40:50;;;;;;;;;;;;;;;;;;;;;
2022/03/24 00:59:45;;;;;;;;;;;;;;;;;;;;;
2022/03/24 01:07:22;;;;;;;;;;;;;;;;;;;;;
2022/03/24 01:11:24;;;;;;;;;;;;;;;;;;;;;
2022/03/24 01:18:50;;;;;;;;;;;;;;;;;;;;;
2022/03/24 01:26:14;;;;;;;;;;;;;;;;;;;;;
2022/03/24 01:29:47;;;;;;;;;;;;;;;;;;;;;
2022/03/24 01:52:53;;;;;;;45.58;22.50;;;3.20;99.90;;;;;;5869019;23;20532;-91
2022/03/24 02:00:08;;;;;;;;;;;;;;;;;;;;;
2022/03/24 02:11:50;;;;;;;;;;;;;;;;;;;;;
2022/03/24 02:34:57;;;;;;;;;;;;;;;;;;;;;
2022/03/24 02:46:50;;;;;;;;;;;;;;;;;;;;;
2022/03/24 02:50:14;;;;;;;;;;;;;;;;;;;;;
2022/03/24 02:54:37;;;;;;;42.38;22.70;;;2.50;99.90;;;;;;5841908;24;20033;-90
2022/03/24 03:24:42;;;;;;;;;;;;;;;;;;;;;
2022/03/24 03:32:27;;;;;;;;;;;;;;;;;;;;;
2022/03/24 03:38:46;;;;;;;43.08;22.13;;;2.40;99.90;;;;;;5958050;24;20021;-90
2022/03/24 03:42:51;;;;;;;;;;;;;;;;;;;;;
2022/03/24 03:46:50;;;;;;;43.67;22.38;;;2.50;99.90;;;;;;5928256;23;20409;-91
2022/03/24 03:53:29;;;;;;;42.60;21.55;;;2.70;99.90;;;;;;6019283;23;19913;-90
2022/03/24 03:56:21;;;;;;;42.78;21.55;;;2.80;99.90;;;;;;6039023;23;20035;-91
2022/03/24 04:03:26;;;;;;;;;;;;;;;;;;;;;
2022/03/24 04:06:57;;;;;;;37.15;20.52;;;3.10;99.90;;;;;;5978705;24;20044;-90
2022/03/24 04:18:16;;;;;;;;;;;;;;;;;;;;;
2022/03/24 04:29:50;;;;;;;;;;;;;;;;;;;;;
2022/03/24 04:32:56;;;;;;;43.53;24.52;;;1.90;99.90;;;;;;5968761;24;20016;-91
2022/03/24 04:40:12;;;;;;;;;;;;;;;;;;;;;
2022/03/24 04:44:05;;;;;;;;;;;;;;;;;;;;;
2022/03/24 04:51:49;;;;;;;;;;;;;;;;;;;;;
2022/03/24 04:55:42;;;;;;;;;;;;;;;;;;;;;
2022/03/24 04:59:12;;;;;;;51.75;24.88;;;1.80;99.90;;;;;;6102342;23;20033;-90
2022/03/24 05:02:55;;;;;;;;;;;;;;;;;;;;;
2022/03/24 05:06:29;;;;;;;;;;;;;;;;;;;;;
2022/03/24 05:14:20;;;;;;;;;;;;;;;;;;;;;
2022/03/24 05:43:24;;;;;;;;;;;;;;;;;;;;;
2022/03/24 05:55:42;;;;;;;47.13;26.52;;;1.70;99.90;;;;;;6019132;23;20027;-90
2022/03/24 05:58:34;;;;;;;48.67;25.90;;;1.70;99.90;;;;;;5974913;23;20047;-86
2022/03/24 06:01:25;;;;;;;46.22;25.73;;;1.60;99.90;;;;;;5980436;23;20040;-88
2022/03/24 06:04:15;;;;;;;49.53;25.60;;;1.70;99.90;;;;;;5990155;23;20028;-89
2022/03/24 06:07:04;;;;;;;46.65;24.77;;;1.70;99.90;;;;;;5989331;23;20032;-88
2022/03/24 06:09:52;;;;;;;44.83;25.27;;;1.90;99.90;;;;;;5986579;23;20315;-88
2022/03/24 06:12:41;;;;;;;45.80;24.67;;;2.10;99.90;;;;;;6006230;23;20028;-89
2022/03/24 06:15:31;;;;;;;41.75;24.05;;;2.20;99.90;;;;;;5987052;23;20032;-89
2022/03/24 06:18:20;;;;;;;39.95;21.55;;;2.50;99.90;;;;;;6091646;23;20284;-86
2022/03/24 06:21:13;;;;;;;44.60;20.58;;;2.80;99.90;;;;;;6005774;23;20031;-89
2022/03/24 06:24:00;;;;;;;42.45;23.40;;;3.10;99.90;;;;;;6007150;23;20027;-87
2022/03/24 06:26:48;;;;;;;50.80;24.17;;;3.40;99.90;;;;;;5993813;23;20020;-89
2022/03/24 06:29:35;;;;;;;41.47;24.17;;;3.70;99.90;;;;;;6149383;23;20033;-89
2022/03/24 06:32:30;;;;;;;44.03;24.20;;;3.90;99.90;;;;;;6151178;23;20093;-92
2022/03/24 06:40:36;;;;;;;46.70;24.52;;;4.00;99.90;;;;;;6026990;23;20362;-89
2022/03/24 06:43:28;;;;;;;45.08;23.23;;;4.00;99.90;;;;;;6032432;23;20414;-91
2022/03/24 06:46:21;;;;;;;39.65;23.00;;;4.30;99.90;;;;;;6014726;23;20076;-90
2022/03/24 06:49:15;;;;;;;43.38;24.42;;;4.50;99.90;;;;;;6015663;23;20344;-84
2022/03/24 06:52:11;;;;;;;45.03;24.00;;;4.50;99.90;;;;;;6013936;23;20143;-82
2022/03/24 06:55:00;;;;;;;43.42;23.60;;;4.80;99.90;;;;;;6111651;23;20029;-84
2022/03/24 06:57:47;;;;;;;42.28;23.75;;;5.20;99.30;;;;;;6128081;23;20075;-81
2022/03/24 07:00:35;;;;;;;45.72;23.13;;;5.50;97.90;;;;;;6131137;23;20030;-81
2022/03/24 07:03:31;;;;;;;41.95;23.13;;;5.90;96.40;;;;;;6158885;23;20033;-81
2022/03/24 07:06:23;;;;;;;44.67;22.75;;;6.20;95.60;;;;;;6153653;23;20405;-83
2022/03/24 07:09:13;;;;;;;42.92;22.25;;;6.70;94.20;;;;;;6131576;23;20115;-83
2022/03/24 07:12:00;;;;;;;37.17;21.85;;;7.20;92.30;;;;;;6130774;23;20037;-83
2022/03/24 07:14:48;;;;;;;41.47;21.98;;;7.50;91.30;;;;;;6150321;23;20030;-84
2022/03/24 07:17:35;;;;;;;38.60;21.08;;;7.90;89.90;;;;;;6151774;23;20029;-84
2022/03/24 07:20:25;;;;;;;37.72;21.52;;;8.20;86.10;;;;;;6130874;23;20029;-84
2022/03/24 07:23:18;;;;;;;35.55;21.55;;;8.30;81.80;;;;;;6132494;22;20033;-84
2022/03/24 07:26:06;;;;;;;40.08;23.25;;;8.40;82.70;;;;;;6132052;23;20037;-83
2022/03/24 07:28:53;;;;;;;33.72;22.15;;;8.40;81.40;;;;;;6154331;23;20037;-85
2022/03/24 07:32:16;;;;;;;41.20;24.15;;;8.40;81.40;;;;;;6168444;23;20029;-83
2022/03/24 07:35:05;;;;;;;40.77;23.40;;;8.30;82.30;;;;;;6164903;23;20025;-84
2022/03/24 07:37:55;;;;;;;35.40;21.58;;;8.40;81.00;;;;;;6149960;23;20268;-82
2022/03/24 07:40:42;;;;;;;37.15;22.55;;;8.80;78.10;;;;;;6261422;22;20013;-81
2022/03/24 07:43:29;;;;;;;35.55;22.42;;;8.90;76.40;;;;;;6259508;22;20010;-80
2022/03/24 07:46:18;;;;;;;43.60;23.45;;;9.00;75.20;;;;;;6258095;22;20044;-83
2022/03/24 07:49:05;;;;;;;35.13;21.35;;;9.50;71.20;;;;;;6171819;23;20081;-82
2022/03/24 07:51:53;;;;;;;39.65;22.98;;;10.10;68.90;;;;;;6174587;23;20040;-82
2022/03/24 07:55:06;;;;;;;33.47;21.50;;;10.70;68.10;;;;;;6172016;22;20022;-81
2022/03/24 07:57:53;;;;;;;;;;;11.20;65.10;;;;;;6257268;22;20052;-81
2022/03/24 08:00:42;;;;;;;38.45;21.80;;;11.40;64.40;;;;;;6251187;22;19924;-82
2022/03/24 08:03:32;;;;;;;36.10;21.30;;;11.60;62.40;;;;;;6249187;22;20033;-81
2022/03/24 08:06:24;;;;;;;34.60;21.27;;;11.90;59.90;;;;;;6161004;23;20059;-81
2022/03/24 08:09:12;;;;;;;35.35;20.73;;;12.40;58.70;;;;;;6156610;23;20030;-82
2022/03/24 08:12:00;;;;;;;32.97;20.33;;;13.10;56.70;;;;;;6155916;22;20057;-84
2022/03/24 08:14:48;;;;;;;31.45;20.60;;;13.70;54.10;;;;;;6156346;23;20133;-82
2022/03/24 08:17:35;;;;;;;33.15;21.20;;;13.90;52.40;;;;;;6156393;23;20410;-83
2022/03/24 08:20:26;;;;;;;29.10;20.33;;;14.50;50.00;;;;;;6248375;22;20029;-83
2022/03/24 08:23:21;;;;;;;30.33;20.30;;;14.70;49.50;;;;;;6159405;23;20045;-81
2022/03/24 08:26:11;;;;;;;32.85;19.80;;;15.20;48.90;;;;;;6158044;23;20036;-81
2022/03/24 08:29:01;;;;;;;31.45;20.85;;;15.70;47.40;;;;;;6243678;22;20037;-83
2022/03/24 08:31:52;;;;;;;34.47;20.27;;;17.00;45.60;;;;;;6153898;23;20396;-84
2022/03/24 08:34:40;;;;;;;27.95;19.75;;;18.00;41.50;;;;;;6156686;22;20084;-83
2022/03/24 08:37:28;;;;;;;25.63;19.38;;;18.50;39.80;;;;;;6241685;22;20145;-84
2022/03/24 08:40:22;;;;;;;25.45;19.50;;;19.70;37.50;;;;;;6234303;22;20036;-84
2022/03/24 08:43:10;;;;;;;30.38;19.52;;;20.20;39.60;;;;;;6154221;23;20021;-83
2022/03/24 08:46:01;;;;;;;28.52;18.77;;;20.50;35.70;;;;;;6152581;23;20031;-82
2022/03/24 08:48:52;;;;;;;26.20;19.33;;;21.20;32.30;;;;;;6238002;22;20025;-82
2022/03/24 08:51:40;;;;;;;21.08;16.52;;;20.40;32.40;;;;;;6152728;23;20021;-83
2022/03/24 08:54:31;;;;;;;23.88;17.85;;;20.60;31.30;;;;;;6237636;22;20118;-83
2022/03/24 08:57:26;;;;;;;28.00;19.58;;;21.50;32.80;;;;;;6152849;22;20021;-83
2022/03/24 09:00:17;;;;;;;24.30;17.98;;;22.00;31.20;;;;;;6220091;22;20351;-84
2022/03/24 09:03:06;;;;;;;;;;;22.10;32.80;;;;;;6154291;23;20447;-84
2022/03/24 09:05:54;;;;;;;25.88;17.58;;;21.90;29.60;;;;;;6152965;23;19924;-81
2022/03/24 09:08:42;;;;;;;21.02;15.48;;;20.90;30.20;;;;;;6238146;22;20452;-81
2022/03/24 09:11:30;;;;;;;25.15;16.95;;;20.60;30.50;;;;;;6154346;22;20053;-81
2022/03/24 09:14:19;;;;;;;27.77;17.15;;;20.20;29.00;;;;;;6238003;22;20439;-84
2022/03/24 09:17:10;;;;;;;22.80;16.15;;;19.70;29.60;;;;;;6213420;22;20100;-81
2022/03/24 09:20:03;;;;;;;27.92;16.98;;;20.20;30.20;;;;;;6153671;23;20029;-81
2022/03/24 09:22:50;;;;;;;22.65;16.73;;;20.40;28.80;;;;;;6235564;22;20029;-82
2022/03/24 09:25:41;;;;;;;20.92;17.40;;;20.80;29.70;;;;;;6236462;22;20048;-82
2022/03/24 09:28:28;;;;;;;22.02;17.02;;;21.70;29.30;;;;;;6239717;22;20030;-82
2022/03/24 09:31:19;;;;;;;23.38;17.17;;;22.30;27.80;;;;;;6156069;23;20029;-81
2022/03/24 09:34:09;;;;;;;21.55;16.80;;;22.30;28.50;;;;;;6239043;22;20084;-82
2022/03/24 09:36:57;;;;;;;27.02;17.67;;;22.00;28.10;;;;;;6238533;22;20375;-82
2022/03/24 09:39:45;;;;;;;26.15;18.13;;;21.30;28.20;;;;;;6153704;23;20017;-84
2022/03/24 09:42:34;;;;;;;24.85;17.15;;;21.60;29.00;;;;;;6155296;23;20038;-85
2022/03/24 09:45:24;;;;;;;21.98;17.00;;;22.00;28.50;;;;;;6240545;22;20025;-84
2022/03/24 09:48:16;;;;;;;19.60;15.70;;;22.70;27.00;;;;;;6155695;23;20026;-82
2022/03/24 09:51:05;;;;;;;22.20;16.13;;;23.80;28.40;;;;;;6152963;23;20079;-84
2022/03/24 09:53:54;;;;;;;21.98;15.52;;;25.00;25.50;;;;;;6241936;22;20040;-87
2022/03/24 09:56:45;;;;;;;18.27;14.50;;;24.90;26.20;;;;;;6159252;22;20037;-87
2022/03/24 09:59:33;;;;;;;20.45;14.85;;;25.60;27.50;;;;;;6247483;22;20025;-86
2022/03/24 10:02:20;;;;;;;21.63;14.82;;;25.60;23.00;;;;;;6239534;22;20129;-88
2022/03/24 10:05:18;;;;;;;21.02;17.20;;;25.10;23.30;;;;;;6152350;23;20460;-85
2022/03/24 10:08:11;;;;;;;25.80;16.13;;;24.50;26.60;;;;;;6154455;22;20082;-85
2022/03/24 10:11:04;;;;;;;19.77;16.15;;;24.10;27.70;;;;;;6155058;23;20082;-85
2022/03/24 10:13:58;;;;;;;21.52;17.33;;;24.60;28.20;;;;;;6240425;22;20037;-86
2022/03/24 10:16:45;;;;;;;21.50;15.27;;;24.90;27.20;;;;;;6154430;23;20082;-86
2022/03/24 10:19:36;;;;;;;23.23;16.05;;;25.10;23.80;;;;;;6155021;23;20021;-86
2022/03/24 10:22:24;;;;;;;23.52;17.25;;;24.80;23.90;;;;;;6155511;23;20461;-87
2022/03/24 10:25:23;;;;;;;20.10;16.52;;;25.20;25.40;;;;;;6241965;22;20025;-84
2022/03/24 10:28:14;;;;;;;22.38;17.92;;;25.50;26.70;;;;;;6239348;22;20404;-84
2022/03/24 10:31:05;;;;;;;24.63;15.88;;;26.10;26.00;;;;;;6160004;22;20025;-84
2022/03/24 10:33:53;;;;;;;21.90;17.10;;;26.50;25.40;;;;;;6163536;22;20052;-84
2022/03/24 10:36:41;;;;;;;21.17;16.63;;;27.10;22.00;;;;;;6163295;22;20021;-84
2022/03/24 10:39:53;;;;;;;21.45;16.60;;;26.80;22.80;;;;;;6156777;23;20021;-85
2022/03/24 10:42:41;;;;;;;18.85;15.27;;;27.00;24.10;;;;;;6156868;22;20065;-83
2022/03/24 10:45:30;;;;;;;20.02;15.68;;;26.30;24.30;;;;;;6161986;22;20077;-84
2022/03/24 10:48:22;;;;;;;17.90;15.90;;;25.90;24.20;;;;;;6169434;23;20073;-84
2022/03/24 10:51:10;;;;;;;23.60;17.05;;;26.30;25.60;;;;;;6252614;22;20059;-83
2022/03/24 10:54:28;;;;;;;22.80;15.65;;;27.00;23.90;;;;;;6252319;22;20030;-82
2022/03/24 10:57:23;;;;;;;19.55;14.18;;;26.30;23.10;;;;;;6165879;22;20109;-84
2022/03/24 11:00:14;;;;;;;17.30;13.98;;;26.60;20.60;;;;;;6172600;23;20017;-82
2022/03/24 11:03:07;;;;;;;17.33;15.25;;;26.50;23.80;;;;;;6173165;23;20069;-83
2022/03/24 11:06:19;;;;;;;20.10;14.70;;;26.50;21.60;;;;;;6250474;22;20047;-82
2022/03/24 11:09:07;;;;;;;20.50;14.68;;;26.30;24.70;;;;;;6161892;23;20064;-83
2022/03/24 11:12:26;;;;;;;22.58;14.52;;;26.60;23.70;;;;;;6162762;23;20644;-85
2022/03/24 11:15:23;;;;;;;19.30;14.13;;;27.30;24.30;;;;;;6253865;22;20039;-88
2022/03/24 11:18:14;;;;;;;20.60;15.70;;;27.30;22.70;;;;;;6248111;22;20110;-85
2022/03/24 11:21:20;;;;;;;23.00;16.38;;;27.10;23.20;;;;;;6239601;22;20100;-83
2022/03/24 11:24:07;;;;;;;23.65;15.90;;;25.90;23.10;;;;;;6156248;22;20040;-85
2022/03/24 11:26:56;;;;;;;22.90;15.90;;;25.60;22.60;;;;;;6218872;22;20100;-86
2022/03/24 11:29:44;;;;;;;20.35;16.95;;;25.50;23.60;;;;;;6237721;22;20029;-86
2022/03/24 11:32:36;;;;;;;23.23;15.88;;;25.90;23.80;;;;;;6156313;23;20304;-86
2022/03/24 11:35:26;;;;;;;22.27;15.70;;;26.90;23.70;;;;;;6240472;22;20040;-85
2022/03/24 11:38:16;;;;;;;;;;;27.70;22.60;;;;;;6243564;22;20049;-85
2022/03/24 11:41:12;;;;;;;23.65;17.45;;;27.10;22.20;;;;;;6154968;23;19916;-86
2022/03/24 11:44:08;;;;;;;28.92;18.33;;;27.30;22.90;;;;;;6153517;23;20029;-85
2022/03/24 11:47:00;;;;;;;21.05;16.92;;;26.40;22.70;;;;;;6242587;22;20078;-87
2022/03/24 11:50:09;;;;;;;23.77;17.83;;;25.80;24.20;;;;;;6154776;23;20056;-86
2022/03/24 11:53:31;;;;;;;24.58;17.35;;;25.90;22.60;;;;;;6237323;22;20134;-83
2022/03/24 11:56:18;;;;;;;22.55;16.60;;;26.80;22.90;;;;;;6164922;22;20025;-83
2022/03/24 11:59:06;;;;;;;23.30;17.73;;;26.50;23.60;;;;;;6150189;23;20060;-83
2022/03/24 12:02:14;;;;;;;19.25;16.33;;;26.70;23.40;;;;;;6153014;23;20390;-84
2022/03/24 12:05:05;;;;;;;19.00;16.88;;;27.60;20.10;;;;;;6153868;22;20028;-86
2022/03/24 12:08:05;;;;;;;23.95;17.92;;;27.00;21.90;;;;;;6240906;22;20026;-84
2022/03/24 12:10:52;;;;;;;20.55;16.58;;;26.60;23.10;;;;;;6240778;22;20420;-83
2022/03/24 12:13:55;;;;;;;22.35;16.23;;;26.40;22.60;;;;;;6154794;23;20025;-84
2022/03/24 12:16:51;;;;;;;23.33;14.68;;;26.60;23.10;;;;;;6240486;22;20022;-84
2022/03/24 12:19:47;;;;;;;17.30;15.25;;;27.40;21.10;;;;;;6153354;23;20022;-83
2022/03/24 12:22:41;;;;;;;18.50;14.07;;;26.90;21.10;;;;;;6239421;22;20026;-87
2022/03/24 12:25:31;;;;;;;17.02;14.52;;;27.80;22.00;;;;;;6240265;22;20036;-85
2022/03/24 12:28:25;;;;;;;16.60;14.32;;;28.10;20.30;;;;;;6236292;22;20037;-85
2022/03/24 12:31:15;;;;;;;18.25;16.20;;;27.30;21.40;;;;;;6158022;23;20026;-82
2022/03/24 12:34:14;;;;;;;20.23;15.07;;;26.50;21.90;;;;;;6240501;22;20025;-85
2022/03/24 12:37:01;;;;;;;19.30;15.75;;;27.20;22.10;;;;;;6156682;23;20401;-82
2022/03/24 12:40:11;;;;;;;19.40;15.88;;;27.40;19.80;;;;;;6160159;23;20036;-85
2022/03/24 12:43:03;;;;;;;18.92;15.90;;;26.60;21.40;;;;;;6246010;22;20049;-85
2022/03/24 12:45:50;;;;;;;24.60;15.80;;;27.20;20.50;;;;;;6163739;23;20102;-84
2022/03/24 12:48:54;;;;;;;22.17;15.25;;;27.20;19.70;;;;;;6160781;22;20030;-86
2022/03/24 12:52:03;;;;;;;21.75;15.23;;;26.10;20.20;;;;;;6161691;23;20035;-84
2022/03/24 12:54:56;;;;;;;18.33;15.35;;;25.40;21.50;;;;;;6159143;22;20052;-85
2022/03/24 12:58:06;;;;;;;20.73;15.13;;;25.50;21.60;;;;;;6156951;23;20030;-84
2022/03/24 13:01:04;;;;;;;17.02;13.90;;;25.70;21.40;;;;;;6155112;23;20021;-82
2022/03/24 13:03:59;;;;;;;19.27;13.13;;;26.90;20.90;;;;;;6154158;23;20026;-84
2022/03/24 13:06:52;;;;;;;17.35;13.57;;;28.70;20.10;;;;;;6152321;23;20032;-84
2022/03/24 13:09:41;;;;;;;16.20;13.93;;;28.70;19.00;;;;;;6152266;23;20034;-85
2022/03/24 13:12:32;;;;;;;14.57;12.95;;;27.30;21.00;;;;;;6152268;23;20025;-84
2022/03/24 13:15:27;;;;;;;17.27;13.27;;;27.80;20.40;;;;;;6242310;22;20061;-86
2022/03/24 13:18:19;;;;;;;15.77;12.75;;;27.30;20.60;;;;;;6167923;23;20029;-90
2022/03/24 13:21:08;;;;;;;14.82;13.27;;;27.40;19.80;;;;;;6247580;22;20039;-87
2022/03/24 13:23:58;;;;;;;13.73;12.32;;;27.90;20.20;;;;;;6154360;23;20025;-85
2022/03/24 13:26:59;;;;;;;17.00;12.48;;;28.80;20.00;;;;;;6237319;22;20036;-87
2022/03/24 13:29:47;;;;;;;19.02;14.10;;;28.70;19.60;;;;;;6238272;22;20136;-85
2022/03/24 13:32:36;;;;;;;15.82;14.10;;;28.50;19.00;;;;;;6150374;23;20025;-83
2022/03/24 13:35:27;;;;;;;15.57;13.40;;;29.00;16.90;;;;;;6149525;23;20037;-84
2022/03/24 13:38:24;;;;;;;16.52;13.27;;;28.30;19.70;;;;;;6149014;23;20104;-81
2022/03/24 13:41:14;;;;;;;23.50;14.23;;;28.90;20.10;;;;;;6238132;22;20036;-84
2022/03/24 13:44:01;;;;;;;19.20;14.02;;;28.40;17.70;;;;;;6153548;23;20026;-85
2022/03/24 13:46:50;;;;;;;17.40;14.55;;;28.70;19.70;;;;;;6154810;23;20029;-85
2022/03/24 13:49:39;;;;;;;17.83;13.98;;;27.30;19.30;;;;;;6155565;23;20037;-86
2022/03/24 13:52:41;;;;;;;17.17;14.40;;;26.40;19.70;;;;;;6236038;22;20037;-83
2022/03/24 13:55:34;;;;;;;17.85;14.85;;;26.70;21.10;;;;;;6152765;22;20355;-83
2022/03/24 13:58:21;;;;;;;18.30;13.82;;;26.90;20.40;;;;;;6219869;22;20026;-84
2022/03/24 14:01:17;;;;;;;16.00;13.88;;;27.50;19.00;;;;;;6156046;23;20088;-84
2022/03/24 14:04:18;;;;;;;16.52;14.68;;;27.40;20.70;;;;;;6235651;22;20048;-84
2022/03/24 14:07:09;;;;;;;16.95;13.20;;;27.20;18.30;;;;;;6156160;23;20409;-84
2022/03/24 14:09:59;;;;;;;18.20;14.18;;;27.50;20.40;;;;;;6157697;22;20034;-84
2022/03/24 14:12:54;;;;;;;22.27;14.82;;;27.20;20.30;;;;;;6242144;22;20029;-84
2022/03/24 14:15:42;;;;;;;16.90;14.50;;;27.80;20.10;;;;;;6243107;22;20110;-83
2022/03/24 14:18:37;;;;;;;18.30;14.93;;;27.80;20.10;;;;;;6151640;23;20053;-81
2022/03/24 14:21:25;;;;;;;17.90;14.98;;;27.60;19.80;;;;;;6249449;22;20021;-83
2022/03/24 14:24:37;;;;;;;19.05;15.30;;;26.70;20.20;;;;;;6249228;22;20113;-84
2022/03/24 14:27:28;;;;;;;19.07;14.43;;;26.20;22.10;;;;;;6167159;23;20087;-84
2022/03/24 14:30:18;;;;;;;20.50;16.20;;;26.30;20.40;;;;;;6169322;23;20270;-83
2022/03/24 14:33:18;;;;;;;21.27;15.35;;;25.50;20.60;;;;;;6255129;22;20039;-81
2022/03/24 14:36:08;;;;;;;21.35;15.27;;;25.20;22.40;;;;;;6169752;23;20025;-82
2022/03/24 14:39:11;;;;;;;;;;;26.00;22.60;;;;;;6169066;23;20026;-81
2022/03/24 14:41:59;;;;;;;18.52;15.40;;;26.30;21.80;;;;;;6258131;22;19904;-81
2022/03/24 14:44:48;;;;;;;21.00;16.05;;;25.90;21.00;;;;;;6171642;23;20025;-83
2022/03/24 14:47:38;;;;;;;20.98;14.45;;;26.70;20.30;;;;;;6255930;22;20030;-84
2022/03/24 14:50:25;;;;;;;19.92;15.30;;;26.60;20.30;;;;;;6254982;22;20026;-82
2022/03/24 14:53:15;;;;;;;19.55;14.45;;;26.30;21.30;;;;;;6157660;23;20117;-82
2022/03/24 14:56:03;;;;;;;20.70;14.18;;;26.10;21.60;;;;;;6240520;22;20047;-85
2022/03/24 14:58:54;;;;;;;19.38;14.65;;;26.50;20.20;;;;;;6242268;22;20408;-84
2022/03/24 15:01:42;;;;;;;17.75;15.02;;;26.70;21.10;;;;;;6238925;22;20022;-84
2022/03/24 15:04:34;;;;;;;25.70;15.68;;;26.10;21.00;;;;;;6150322;22;20029;-86
2022/03/24 15:07:21;;;;;;;20.42;15.50;;;25.60;20.90;;;;;;6151588;22;20021;-85
2022/03/24 15:10:10;;;;;;;18.20;14.80;;;25.30;21.30;;;;;;6154273;23;20149;-84
2022/03/24 15:12:58;;;;;;;16.38;14.23;;;24.90;22.30;;;;;;6238782;22;20032;-84
2022/03/24 15:16:05;;;;;;;16.40;13.85;;;24.90;22.30;;;;;;6231536;22;20337;-84
2022/03/24 15:18:53;;;;;;;18.50;14.00;;;25.40;22.30;;;;;;6150437;23;20030;-82
2022/03/24 15:21:43;;;;;;;22.50;14.18;;;25.20;21.70;;;;;;6234271;22;20022;-84
2022/03/24 15:24:40;;;;;;;17.23;13.48;;;25.20;21.40;;;;;;6219255;22;20100;-82
2022/03/24 15:27:27;;;;;;;20.00;14.55;;;25.20;21.90;;;;;;6239106;22;20118;-83
2022/03/24 15:30:15;;;;;;;18.35;14.00;;;24.60;22.00;;;;;;6159940;23;20029;-84
2022/03/24 15:33:03;;;;;;;17.20;14.23;;;23.90;22.60;;;;;;6166862;23;20040;-83
2022/03/24 15:35:54;;;;;;;20.00;13.85;;;23.40;23.00;;;;;;6159086;23;20026;-86
2022/03/24 15:38:50;;;;;;;21.52;14.52;;;24.40;24.00;;;;;;6158290;23;20029;-86
2022/03/24 15:41:38;;;;;;;18.00;14.07;;;25.10;22.40;;;;;;6241123;22;20070;-85
2022/03/24 15:44:29;;;;;;;16.65;13.20;;;24.40;21.90;;;;;;6154327;23;20118;-84
2022/03/24 15:47:17;;;;;;;17.30;13.50;;;23.90;22.40;;;;;;6153796;23;20022;-86
2022/03/24 15:50:09;;;;;;;23.13;14.48;;;23.80;22.70;;;;;;6153073;23;20494;-85
2022/03/24 15:52:56;;;;;;;18.85;14.10;;;23.40;22.40;;;;;;6240234;22;20207;-85
2022/03/24 15:55:46;;;;;;;16.27;13.32;;;23.10;22.80;;;;;;6152388;23;20340;-85
2022/03/24 15:58:34;;;;;;;20.50;13.70;;;22.80;22.90;;;;;;6152451;23;20120;-85
2022/03/24 16:01:24;;;;;;;25.23;14.40;;;22.40;23.40;;;;;;6237406;22;20029;-85
2022/03/24 16:04:13;;;;;;;18.33;13.50;;;22.30;24.00;;;;;;6151266;23;20039;-83
2022/03/24 16:07:01;;;;;;;20.60;13.07;;;22.00;24.00;;;;;;6237635;22;20074;-84
2022/03/24 16:09:51;;;;;;;17.95;13.35;;;21.70;24.30;;;;;;6236307;22;20479;-83
2022/03/24 16:12:42;;;;;;;14.57;12.43;;;21.70;24.90;;;;;;6151118;23;20033;-84
2022/03/24 16:15:34;;;;;;;19.65;13.35;;;22.00;25.10;;;;;;6234014;22;20181;-84
2022/03/24 16:18:22;;;;;;;18.52;12.80;;;22.30;22.60;;;;;;6152288;23;20413;-85
2022/03/24 16:21:11;;;;;;;18.45;12.60;;;21.90;24.20;;;;;;6152222;23;20029;-85
2022/03/24 16:24:02;;;;;;;20.75;12.10;;;21.60;24.40;;;;;;6237322;22;20060;-84
2022/03/24 16:26:50;;;;;;;14.93;12.40;;;21.30;24.10;;;;;;6151983;23;20025;-84
2022/03/24 16:29:38;;;;;;;18.92;12.93;;;20.90;24.60;;;;;;6151006;23;20123;-84
2022/03/24 16:32:26;;;;;;;15.50;12.35;;;20.50;25.70;;;;;;6154565;23;20053;-84
2022/03/24 16:35:17;;;;;;;16.33;12.23;;;19.90;25.80;;;;;;6153472;22;20028;-84
2022/03/24 16:38:05;;;;;;;20.95;12.55;;;19.20;27.00;;;;;;6153681;22;20021;-84
2022/03/24 16:40:53;;;;;;;17.67;12.55;;;18.50;28.30;;;;;;6237074;22;20040;-84
2022/03/24 16:43:41;;;;;;;19.42;13.18;;;17.80;28.30;;;;;;6152109;23;20025;-84
2022/03/24 16:46:29;;;;;;;17.05;12.40;;;17.40;28.90;;;;;;6151796;23;20029;-82
2022/03/24 16:49:16;;;;;;;18.85;12.43;;;17.10;29.70;;;;;;6153528;23;20371;-82
2022/03/24 16:52:08;;;;;;;18.48;12.25;;;16.80;29.80;;;;;;6156019;23;20037;-83
2022/03/24 16:55:12;;;;;;;20.77;12.75;;;16.60;30.70;;;;;;6152560;23;20032;-82
2022/03/24 16:58:25;;;;;;;17.40;12.85;;;16.40;31.70;;;;;;6153917;22;20092;-84
2022/03/24 17:01:17;;;;;;;19.63;12.82;;;16.10;31.70;;;;;;6150952;23;20023;-84
2022/03/24 17:04:05;;;;;;;20.73;12.18;;;15.90;32.40;;;;;;6152555;23;20073;-84
2022/03/24 17:06:53;;;;;;;20.05;12.43;;;15.80;31.90;;;;;;6164566;23;20077;-85
2022/03/24 17:09:41;;;;;;;16.50;11.93;;;15.60;33.20;;;;;;6254160;22;20029;-85
2022/03/24 17:12:28;;;;;;;20.33;12.63;;;15.50;33.70;;;;;;6164575;23;20107;-85
2022/03/24 17:15:17;;;;;;;17.30;12.25;;;15.30;33.10;;;;;;6163162;23;20021;-85
2022/03/24 17:18:04;;;;;;;16.77;12.20;;;15.20;33.20;;;;;;6162070;23;20025;-85
2022/03/24 17:20:52;;;;;;;19.48;12.55;;;15.00;33.40;;;;;;6260437;22;20044;-83
2022/03/24 17:23:43;;;;;;;16.40;12.43;;;14.80;33.70;;;;;;6258555;22;20026;-86
2022/03/24 17:26:33;;;;;;;21.08;12.02;;;14.70;34.50;;;;;;6249124;22;20036;-84
2022/03/24 17:29:22;;;;;;;21.33;13.15;;;14.60;34.00;;;;;;6163035;23;20022;-85
2022/03/24 17:32:13;;;;;;;16.90;11.43;;;14.40;34.40;;;;;;6249139;22;20079;-84
2022/03/24 17:35:01;;;;;;;15.80;11.65;;;14.40;35.30;;;;;;6162386;23;20025;-85
2022/03/24 17:37:52;;;;;;;17.00;12.40;;;14.20;34.80;;;;;;6245280;22;20033;-85
2022/03/24 17:40:40;;;;;;;15.60;11.68;;;14.00;34.20;;;;;;6153439;22;20121;-84
2022/03/24 17:43:28;;;;;;;20.60;12.52;;;13.80;35.60;;;;;;6152703;23;20026;-84
2022/03/24 17:46:17;;;;;;;17.77;13.40;;;13.70;35.70;;;;;;6152524;23;20093;-85
2022/03/24 17:49:09;;;;;;;15.70;12.45;;;13.50;35.10;;;;;;6237866;22;20029;-85
2022/03/24 17:52:00;;;;;;;19.45;13.13;;;13.30;36.20;;;;;;6234277;22;20029;-85
2022/03/24 17:54:48;;;;;;;22.17;12.93;;;13.00;35.70;;;;;;6235898;22;20029;-85
2022/03/24 17:57:36;;;;;;;17.52;12.48;;;12.90;36.50;;;;;;6149738;23;20034;-84
2022/03/24 18:00:27;;;;;;;18.40;13.40;;;12.70;36.70;;;;;;6155035;22;20025;-85
2022/03/24 18:03:22;;;;;;;20.75;13.95;;;12.50;38.40;;;;;;6247680;22;20056;-85
2022/03/24 18:06:10;;;;;;;18.73;13.57;;;12.30;37.50;;;;;;6162569;22;20025;-84
2022/03/24 18:09:00;;;;;;;21.23;12.68;;;12.20;38.60;;;;;;6149985;23;20125;-85
2022/03/24 18:11:48;;;;;;;21.90;14.15;;;12.10;38.60;;;;;;6150982;22;20034;-84
2022/03/24 18:14:36;;;;;;;21.05;14.35;;;11.90;38.70;;;;;;6151755;23;20104;-84
2022/03/24 18:17:24;;;;;;;23.95;12.73;;;11.80;39.90;;;;;;6235360;22;20025;-86
2022/03/24 18:20:14;;;;;;;21.35;13.30;;;11.70;40.90;;;;;;6149310;23;20443;-84
2022/03/24 18:23:03;;;;;;;21.92;12.88;;;11.60;41.40;;;;;;6150989;23;20079;-84
2022/03/24 18:25:53;;;;;;;23.25;13.57;;;11.50;40.70;;;;;;6152594;22;20025;-84
2022/03/24 18:28:43;;;;;;;21.58;12.93;;;11.40;41.00;;;;;;6233825;22;20057;-83
2022/03/24 18:31:39;;;;;;;24.65;13.82;;;11.40;41.30;;;;;;6149616;23;20309;-84
2022/03/24 18:34:27;;;;;;;20.35;14.05;;;11.30;41.10;;;;;;6236648;22;20030;-82
2022/03/24 18:37:15;;;;;;;20.50;13.65;;;11.30;40.80;;;;;;6150441;23;20030;-83
2022/03/24 18:40:03;;;;;;;26.85;13.73;;;11.20;41.60;;;;;;6153236;23;20041;-81
2022/03/24 18:42:52;;;;;;;19.05;13.55;;;11.20;40.80;;;;;;6235786;22;20044;-83
2022/03/24 18:45:41;;;;;;;23.77;13.70;;;11.20;41.40;;;;;;6236825;22;20052;-83
2022/03/24 18:48:32;;;;;;;20.67;13.40;;;11.20;41.10;;;;;;6150733;23;20025;-83
2022/03/24 18:51:21;;;;;;;21.33;14.18;;;11.10;41.20;;;;;;6150854;23;20407;-83
2022/03/24 18:54:13;;;;;;;20.42;13.85;;;11.10;40.70;;;;;;6235506;22;20029;-82
2022/03/24 18:57:09;;;;;;;21.27;13.07;;;11.10;41.00;;;;;;6150366;23;20067;-83
2022/03/24 18:59:57;;;;;;;19.92;13.10;;;11.00;41.30;;;;;;6238420;22;20340;-87
2022/03/24 19:02:48;;;;;;;24.35;14.40;;;10.90;41.70;;;;;;6155159;23;20036;-86
2022/03/24 19:05:38;;;;;;;20.90;12.73;;;10.90;41.30;;;;;;6236530;22;20079;-86
2022/03/24 19:08:29;;;;;;;21.67;13.32;;;10.80;42.40;;;;;;6154589;23;20101;-86
2022/03/24 19:11:19;;;;;;;20.17;13.15;;;10.70;43.40;;;;;;6155739;23;20377;-85
2022/03/24 19:14:10;;;;;;;26.42;13.52;;;10.60;43.60;;;;;;6155444;22;20029;-87
2022/03/24 19:17:05;;;;;;;21.48;12.77;;;10.50;43.60;;;;;;6156076;23;20409;-87
2022/03/24 19:19:55;;;;;;;;;;;10.50;43.30;;;;;;6247009;22;20041;-85
2022/03/24 19:22:45;;;;;;;23.42;13.52;;;10.40;42.60;;;;;;6240714;22;19927;-86
2022/03/24 19:25:34;;;;;;;18.95;12.68;;;10.30;42.30;;;;;;6153067;23;20456;-84